Buda, Texas
Current Conditions -  °F | °C
As of 10:53 AM on Thursday 30 Oct 2014 (Local Time) from KAUS Reporting Station
Few Clouds Few Clouds  
Wind Chill: 68°   Ceiling: Unl
Heat Index: 68°   Visibility: 10mi
Dew Point: 56°   Wind: 0mph
Humidity: 65%   Direction: NA
Pressure: 30.16"   Gusts: NA
Location:  30.09°N, 97.84°W
Report Text: KAUS 301553Z 00000KT 10SM FEW080 FEW110 20/13 A3016 RMK AO2 SLP210 T02000133
Loading
Personal Weather Stations






























Interactive Weather Map New forecast layout! Learn more

10-Day Weather Forecast

Advertisements
Track Severe Weather on mobile